Time,TemperatureF,DewpointF,PressureIn,WindDirection,WindDirectionDegrees,WindSpeedMPH,WindSpeedGustMPH,Humidity,HourlyPrecipIn,Conditions,Clouds,dailyrainin,SoftwareType,DateUTC
2013-12-10 00:00:00,67.1,63.5,30.04,SSW,203,0.4,0.4,88,0.00,,,0.00,WUHU216HW,2013-12-10 05:00:00,
2013-12-10 00:01:00,67.1,63.5,30.04,SSW,203,0.0,0.4,88,0.00,,,0.00,WUHU216HW,2013-12-10 05:01:00,
2013-12-10 00:06:00,67.1,63.5,30.04,SE,135,0.4,0.4,88,0.00,,,0.00,WUHU216HW,2013-12-10 05:06:00,
2013-12-10 00:11:00,67.1,63.5,30.04,SE,135,0.0,0.7,88,0.00,,,0.00,WUHU216HW,2013-12-10 05:11:00,
2013-12-10 00:16:00,67.1,63.5,30.04,WSW,248,0.4,1.1,88,0.00,,,0.00,WUHU216HW,2013-12-10 05:16:00,
2013-12-10 00:21:00,67.1,63.5,30.04,South,180,0.0,1.1,88,0.00,,,0.00,WUHU216HW,2013-12-10 05:21:00,
2013-12-10 00:26:00,67.3,63.6,30.04,SE,135,0.0,0.7,88,0.00,,,0.00,WUHU216HW,2013-12-10 05:26:00,
2013-12-10 00:31:00,67.3,63.6,30.04,ESE,113,0.0,0.4,88,0.00,,,0.00,WUHU216HW,2013-12-10 05:31:00,
2013-12-10 00:36:00,67.1,63.5,30.03,SE,135,0.0,0.9,88,0.00,,,0.00,WUHU216HW,2013-12-10 05:36:00,
2013-12-10 00:41:00,67.1,63.5,30.04,SE,135,0.4,0.9,88,0.00,,,0.00,WUHU216HW,2013-12-10 05:41:00,
2013-12-10 00:46:00,67.3,63.6,30.04,ESE,113,2.7,2.7,88,0.00,,,0.00,WUHU216HW,2013-12-10 05:46:00,
2013-12-10 00:51:00,67.5,64.1,30.04,SE,135,1.3,2.7,89,0.00,,,0.00,WUHU216HW,2013-12-10 05:51:00,
2013-12-10 00:56:00,67.7,64.3,30.04,ESE,113,1.1,2.7,89,0.00,,,0.00,WUHU216HW,2013-12-10 05:56:00,
2013-12-10 01:01:00,67.9,64.4,30.03,ESE,113,1.6,2.2,89,0.00,,,0.00,WUHU216HW,2013-12-10 06:01:00,
2013-12-10 01:06:00,67.9,64.4,30.03,SE,135,1.8,1.8,89,0.00,,,0.00,WUHU216HW,2013-12-10 06:06:00,
2013-12-10 01:11:00,67.9,64.4,30.03,SE,135,1.8,1.8,89,0.00,,,0.00,WUHU216HW,2013-12-10 06:11:00,
2013-12-10 03:00:00,66.4,63.0,30.03,WSW,248,0.0,0.0,89,0.00,,,0.00,WUHU216HW,2013-12-10 08:00:00,
2013-12-10 03:05:00,66.4,63.0,30.03,WSW,248,0.0,0.0,89,0.00,,,0.00,WUHU216HW,2013-12-10 08:05:00,
2013-12-10 04:00:00,66.4,63.4,30.03,SSW,203,0.0,0.0,90,0.00,,,0.00,WUHU216HW,2013-12-10 09:00:00,
2013-12-10 04:04:00,66.4,63.4,30.03,SSW,203,0.0,0.0,90,0.00,,,0.00,WUHU216HW,2013-12-10 09:04:00,
2013-12-10 04:09:00,66.4,63.4,30.03,SSW,203,0.0,0.0,90,0.00,,,0.00,WUHU216HW,2013-12-10 09:09:00,
2013-12-10 07:00:00,66.2,63.5,30.04,SE,135,1.8,1.8,91,0.00,,,0.00,WUHU216HW,2013-12-10 12:00:00,
2013-12-10 07:05:00,66.2,63.5,30.04,SE,135,1.8,1.8,91,0.00,,,0.00,WUHU216HW,2013-12-10 12:05:00,
2013-12-10 08:00:00,67.5,64.7,30.04,WSW,248,1.8,1.8,91,0.00,,,0.00,WUHU216HW,2013-12-10 13:00:00,
2013-12-10 08:05:00,67.5,64.7,30.04,WSW,248,1.8,1.8,91,0.00,,,0.00,WUHU216HW,2013-12-10 13:05:00,
2013-12-10 09:00:00,70.9,66.9,30.06,SSE,158,4.7,4.7,87,0.00,,,0.00,WUHU216HW,2013-12-10 14:00:00,
2013-12-10 09:05:00,71.3,66.9,30.06,WSW,248,5.6,6.0,86,0.00,,,0.00,WUHU216HW,2013-12-10 14:05:00,
2013-12-10 09:10:00,71.6,66.9,30.06,West,270,4.0,6.0,85,0.00,,,0.00,WUHU216HW,2013-12-10 14:10:00,
2013-12-10 09:15:00,72.2,67.1,30.06,SSE,158,2.5,6.9,84,0.00,,,0.00,WUHU216HW,2013-12-10 14:15:00,
2013-12-10 09:20:00,72.7,67.2,30.06,SSW,203,5.8,6.9,83,0.00,,,0.00,WUHU216HW,2013-12-10 14:20:00,
2013-12-10 09:25:00,72.9,67.4,30.06,NNE,23,2.0,6.9,83,0.00,,,0.00,WUHU216HW,2013-12-10 14:25:00,
2013-12-10 09:30:00,73.1,67.6,30.07,SE,135,3.8,6.9,83,0.00,,,0.00,WUHU216HW,2013-12-10 14:30:00,
2013-12-10 09:35:00,73.6,67.9,30.07,WSW,248,7.2,7.2,82,0.00,,,0.00,WUHU216HW,2013-12-10 14:35:00,
2013-12-10 09:40:00,73.8,67.7,30.06,WNW,293,2.9,7.2,81,0.00,,,0.00,WUHU216HW,2013-12-10 14:40:00,
2013-12-10 09:45:00,73.8,67.7,30.07,NW,315,4.0,5.1,81,0.00,,,0.00,WUHU216HW,2013-12-10 14:45:00,
2013-12-10 09:50:00,73.8,67.7,30.07,WSW,248,1.8,5.1,81,0.00,,,0.00,WUHU216HW,2013-12-10 14:50:00,
2013-12-10 09:55:00,74.2,67.7,30.07,WNW,293,0.4,5.1,80,0.00,,,0.00,WUHU216HW,2013-12-10 14:55:00,
2013-12-10 10:00:00,74.5,67.2,30.07,SW,225,4.9,8.1,78,0.00,,,0.00,WUHU216HW,2013-12-10 15:00:00,
2013-12-10 10:05:00,74.9,67.6,30.06,SE,135,4.0,8.1,78,0.00,,,0.00,WUHU216HW,2013-12-10 15:05:00,
2013-12-10 10:10:00,75.2,68.0,30.06,SE,135,3.4,7.6,78,0.00,,,0.00,WUHU216HW,2013-12-10 15:10:00,
2013-12-10 10:15:00,75.4,67.3,30.07,West,270,5.4,7.4,76,0.00,,,0.00,WUHU216HW,2013-12-10 15:15:00,
2013-12-10 10:20:00,75.8,67.3,30.06,South,180,2.2,9.2,75,0.00,,,0.00,WUHU216HW,2013-12-10 15:20:00,
2013-12-10 10:25:00,76.0,67.5,30.06,WSW,248,4.7,9.2,75,0.00,,,0.00,WUHU216HW,2013-12-10 15:25:00,
2013-12-10 10:30:00,76.5,68.0,30.06,SE,135,1.8,7.6,75,0.00,,,0.00,WUHU216HW,2013-12-10 15:30:00,
2013-12-10 10:35:00,76.7,67.4,30.06,SW,225,2.2,7.8,73,0.00,,,0.00,WUHU216HW,2013-12-10 15:35:00,
2013-12-10 10:40:00,76.9,67.1,30.06,West,270,2.9,7.8,72,0.00,,,0.00,WUHU216HW,2013-12-10 15:40:00,
2013-12-10 10:45:00,77.2,67.1,30.06,ESE,113,3.8,6.3,71,0.00,,,0.00,WUHU216HW,2013-12-10 15:45:00,
2013-12-10 10:50:00,77.4,67.3,30.07,SE,135,2.5,7.2,71,0.00,,,0.00,WUHU216HW,2013-12-10 15:50:00,
2013-12-10 10:55:00,77.6,66.6,30.06,WSW,248,3.8,7.2,69,0.00,,,0.00,WUHU216HW,2013-12-10 15:55:00,
2013-12-10 11:00:00,77.8,66.3,30.06,ESE,113,5.8,6.7,68,0.00,,,0.00,WUHU216HW,2013-12-10 16:00:00,
2013-12-10 11:05:00,77.9,67.0,30.06,West,270,3.4,7.2,69,0.00,,,0.00,WUHU216HW,2013-12-10 16:05:00,
2013-12-10 11:10:00,78.3,66.9,30.05,WNW,293,1.3,7.2,68,0.00,,,0.00,WUHU216HW,2013-12-10 16:10:00,
2013-12-10 11:15:00,78.3,66.9,30.05,SW,225,3.1,6.3,68,0.00,,,0.00,WUHU216HW,2013-12-10 16:15:00,
2013-12-10 11:20:00,78.3,67.3,30.05,SW,225,3.8,5.4,69,0.00,,,0.00,WUHU216HW,2013-12-10 16:20:00,
2013-12-10 11:25:00,78.8,67.0,30.05,South,180,2.2,8.1,67,0.00,,,0.00,WUHU216HW,2013-12-10 16:25:00,
2013-12-10 11:30:00,78.7,66.8,30.05,SSE,158,4.0,8.1,67,0.00,,,0.00,WUHU216HW,2013-12-10 16:30:00,
2013-12-10 11:35:00,78.5,67.1,30.05,North,0,1.3,6.9,68,0.00,,,0.00,WUHU216HW,2013-12-10 16:35:00,
2013-12-10 11:40:00,78.8,67.3,30.05,WSW,248,4.7,5.4,68,0.00,,,0.00,WUHU216HW,2013-12-10 16:40:00,
2013-12-10 11:45:00,79.4,67.4,30.05,East,90,1.1,5.4,67,0.00,,,0.00,WUHU216HW,2013-12-10 16:45:00,
2013-12-10 11:50:00,79.9,68.0,30.04,West,270,4.5,6.3,67,0.00,,,0.00,WUHU216HW,2013-12-10 16:50:00,
2013-12-10 11:55:00,80.3,67.9,30.04,WNW,293,2.5,6.3,66,0.00,,,0.00,WUHU216HW,2013-12-10 16:55:00,
2013-12-10 12:00:00,80.8,68.0,30.04,SE,135,3.6,8.7,65,0.00,,,0.00,WUHU216HW,2013-12-10 17:00:00,
2013-12-10 12:05:00,81.0,68.6,30.03,WSW,248,3.8,8.7,66,0.00,,,0.00,WUHU216HW,2013-12-10 17:05:00,
2013-12-10 12:10:00,81.4,68.4,30.03,WNW,293,1.6,6.9,65,0.00,,,0.00,WUHU216HW,2013-12-10 17:10:00,
2013-12-10 12:15:00,81.0,67.7,30.03,NW,315,1.6,6.9,64,0.00,,,0.00,WUHU216HW,2013-12-10 17:15:00,
2013-12-10 12:20:00,80.5,67.6,30.03,WSW,248,5.6,5.6,65,0.00,,,0.00,WUHU216HW,2013-12-10 17:20:00,
2013-12-10 12:21:00,80.3,67.4,30.03,SE,135,3.1,3.1,65,0.00,,,0.00,WUHU216HW,2013-12-10 17:21:00,
2013-12-10 12:25:00,80.3,67.4,30.03,SE,135,3.1,5.6,65,0.00,,,0.00,WUHU216HW,2013-12-10 17:25:00,
2013-12-10 12:30:00,80.3,67.4,30.03,SE,135,3.1,3.4,65,0.00,,,0.00,WUHU216HW,2013-12-10 17:30:00,
2013-12-10 13:00:00,77.6,67.9,30.00,North,0,0.0,0.0,72,0.00,,,0.00,WUHU216HW,2013-12-10 18:00:00,
2013-12-10 13:05:00,77.6,67.9,30.00,North,0,0.0,0.0,72,0.00,,,0.00,WUHU216HW,2013-12-10 18:05:00,
2013-12-10 14:00:00,72.7,67.6,30.00,SE,135,3.4,3.4,84,0.00,,,0.00,WUHU216HW,2013-12-10 19:00:00,
2013-12-10 14:05:00,72.5,67.4,30.00,NW,315,0.4,4.3,84,0.01,,,0.12,WUHU216HW,2013-12-10 19:05:00,
2013-12-10 14:10:00,72.4,67.2,29.99,West,270,0.7,4.3,84,0.02,,,0.12,WUHU216HW,2013-12-10 19:10:00,
2013-12-10 14:15:00,72.4,67.2,29.99,NW,315,0.4,3.4,84,0.02,,,0.12,WUHU216HW,2013-12-10 19:15:00,
2013-12-10 14:20:00,72.4,67.2,29.99,SE,135,1.8,3.4,84,0.02,,,0.12,WUHU216HW,2013-12-10 19:20:00,
2013-12-10 14:25:00,72.4,67.2,29.99,SW,225,0.2,3.4,84,0.02,,,0.12,WUHU216HW,2013-12-10 19:25:00,
2013-12-10 14:30:00,72.7,68.0,29.99,SE,135,1.8,2.7,85,0.02,,,0.12,WUHU216HW,2013-12-10 19:30:00,
2013-12-10 14:35:00,72.9,68.9,29.99,SSE,158,0.7,3.4,87,0.02,,,0.12,WUHU216HW,2013-12-10 19:35:00,
2013-12-10 14:40:00,73.1,68.7,29.99,WSW,248,0.7,3.4,86,0.02,,,0.12,WUHU216HW,2013-12-10 19:40:00,
2013-12-10 14:45:00,72.9,68.5,30.00,SW,225,0.4,1.8,86,0.02,,,0.12,WUHU216HW,2013-12-10 19:45:00,
2013-12-10 14:50:00,72.9,68.9,29.99,SSW,203,0.4,3.4,87,0.02,,,0.12,WUHU216HW,2013-12-10 19:50:00,
2013-12-10 14:55:00,72.9,68.9,30.00,SSE,158,0.4,3.4,87,0.02,,,0.12,WUHU216HW,2013-12-10 19:55:00,
2013-12-10 15:00:00,73.1,69.0,30.00,SE,135,1.1,1.1,87,0.02,,,0.12,WUHU216HW,2013-12-10 20:00:00,
2013-12-10 15:05:00,73.3,69.2,30.00,WSW,248,0.2,2.9,87,0.01,,,0.12,WUHU216HW,2013-12-10 20:05:00,
2013-12-10 15:10:00,73.3,69.2,30.00,West,270,0.4,2.9,87,0.00,,,0.12,WUHU216HW,2013-12-10 20:10:00,
2013-12-10 15:15:00,73.3,69.2,30.00,SE,135,0.0,2.5,87,0.00,,,0.12,WUHU216HW,2013-12-10 20:15:00,
2013-12-10 15:20:00,73.1,69.0,30.01,West,270,2.0,2.5,87,0.00,,,0.12,WUHU216HW,2013-12-10 20:20:00,
2013-12-10 15:25:00,73.1,69.3,30.01,NNW,338,2.2,4.5,88,0.01,,,0.13,WUHU216HW,2013-12-10 20:25:00,
2013-12-10 15:30:00,72.7,68.9,30.02,WNW,293,1.1,4.5,88,0.01,,,0.13,WUHU216HW,2013-12-10 20:30:00,
2013-12-10 15:35:00,72.4,68.3,30.02,NNE,23,2.5,5.4,87,0.02,,,0.14,WUHU216HW,2013-12-10 20:35:00,
2013-12-10 15:40:00,72.4,68.6,30.02,WNW,293,0.4,5.4,88,0.02,,,0.14,WUHU216HW,2013-12-10 20:40:00,
2013-12-10 15:45:00,72.2,68.4,30.02,NW,315,0.2,2.5,88,0.02,,,0.14,WUHU216HW,2013-12-10 20:45:00,
2013-12-10 15:50:00,72.2,68.4,30.03,NNW,338,1.8,2.5,88,0.02,,,0.15,WUHU216HW,2013-12-10 20:50:00,
2013-12-10 15:55:00,71.8,68.0,30.03,NNW,338,1.6,2.5,88,0.03,,,0.16,WUHU216HW,2013-12-10 20:55:00,
2013-12-10 16:00:00,71.5,67.7,30.03,North,0,0.0,2.0,88,0.03,,,0.16,WUHU216HW,2013-12-10 21:00:00,
2013-12-10 16:05:00,71.3,67.5,30.03,NNW,338,2.0,4.3,88,0.03,,,0.16,WUHU216HW,2013-12-10 21:05:00,
2013-12-10 16:10:00,71.1,67.3,30.03,North,0,0.2,4.3,88,0.03,,,0.16,WUHU216HW,2013-12-10 21:10:00,
2013-12-10 16:15:00,71.1,67.3,30.03,NNW,338,0.2,2.7,88,0.03,,,0.16,WUHU216HW,2013-12-10 21:15:00,
2013-12-10 16:20:00,71.1,67.1,30.04,NNW,338,0.2,1.8,87,0.03,,,0.16,WUHU216HW,2013-12-10 21:20:00,
2013-12-10 16:25:00,71.1,67.1,30.04,NNW,338,0.0,1.8,87,0.02,,,0.16,WUHU216HW,2013-12-10 21:25:00,
2013-12-10 16:30:00,70.9,67.1,30.04,North,0,1.1,3.1,88,0.02,,,0.16,WUHU216HW,2013-12-10 21:30:00,
2013-12-10 16:35:00,70.9,67.1,30.04,North,0,1.1,3.1,88,0.02,,,0.16,WUHU216HW,2013-12-10 21:35:00,
2013-12-10 17:00:00,70.2,66.2,30.05,NW,315,0.4,0.4,87,0.00,,,0.16,WUHU216HW,2013-12-10 22:00:00,
2013-12-10 17:05:00,70.2,66.2,30.05,NW,315,0.4,0.4,87,0.00,,,0.16,WUHU216HW,2013-12-10 22:05:00,
2013-12-10 19:00:00,65.3,60.0,30.12,North,0,0.0,0.0,83,0.00,,,0.16,WUHU216HW,2013-12-11 00:00:00,
2013-12-10 19:05:00,65.3,60.0,30.12,North,0,0.0,0.0,83,0.00,,,0.16,WUHU216HW,2013-12-11 00:05:00,
2013-12-10 20:00:00,62.8,55.8,30.15,North,0,0.2,0.2,78,0.00,,,0.16,WUHU216HW,2013-12-11 01:00:00,
2013-12-10 20:05:00,62.6,55.3,30.15,NNE,23,0.4,0.9,77,0.00,,,0.16,WUHU216HW,2013-12-11 01:05:00,
2013-12-10 20:10:00,62.5,55.4,30.15,North,0,0.2,0.9,78,0.00,,,0.16,WUHU216HW,2013-12-11 01:10:00,
2013-12-10 20:15:00,62.3,55.3,30.15,NNW,338,0.2,1.3,78,0.00,,,0.16,WUHU216HW,2013-12-11 01:15:00,
2013-12-10 20:20:00,62.3,55.3,30.16,North,0,0.0,1.3,78,0.00,,,0.16,WUHU216HW,2013-12-11 01:20:00,
2013-12-10 20:25:00,62.1,55.5,30.16,NNW,338,2.2,2.2,79,0.00,,,0.16,WUHU216HW,2013-12-11 01:25:00,
2013-12-10 20:30:00,61.9,55.4,30.16,NNW,338,0.0,2.2,79,0.00,,,0.16,WUHU216HW,2013-12-11 01:30:00,
2013-12-10 20:35:00,61.7,55.2,30.16,North,0,0.4,2.2,79,0.00,,,0.16,WUHU216HW,2013-12-11 01:35:00,
2013-12-10 20:40:00,61.6,55.0,30.16,NNW,338,0.4,0.9,79,0.00,,,0.16,WUHU216HW,2013-12-11 01:40:00,
2013-12-10 20:45:00,61.4,54.8,30.16,North,0,0.0,0.9,79,0.00,,,0.16,WUHU216HW,2013-12-11 01:45:00,
2013-12-10 20:50:00,61.2,55.1,30.16,NNW,338,0.4,1.6,80,0.00,,,0.16,WUHU216HW,2013-12-11 01:50:00,
2013-12-10 20:55:00,60.8,54.4,30.17,North,0,0.9,1.6,79,0.00,,,0.16,WUHU216HW,2013-12-11 01:55:00,
2013-12-10 21:00:00,60.7,54.2,30.17,NE,45,0.4,0.9,79,0.00,,,0.16,WUHU216HW,2013-12-11 02:00:00,
2013-12-10 21:05:00,60.5,54.0,30.17,NNE,23,0.0,1.1,79,0.00,,,0.16,WUHU216HW,2013-12-11 02:05:00,
2013-12-10 21:10:00,60.1,53.3,30.17,North,0,0.0,1.3,78,0.00,,,0.16,WUHU216HW,2013-12-11 02:10:00,
2013-12-10 21:15:00,59.8,52.9,30.18,NNW,338,1.3,1.3,78,0.00,,,0.16,WUHU216HW,2013-12-11 02:15:00,
2013-12-10 21:20:00,59.6,52.4,30.18,NNW,338,0.0,1.3,77,0.00,,,0.16,WUHU216HW,2013-12-11 02:20:00,
2013-12-10 21:25:00,59.4,52.2,30.18,North,0,0.0,1.1,77,0.00,,,0.16,WUHU216HW,2013-12-11 02:25:00,
2013-12-10 21:30:00,59.2,52.4,30.18,North,0,0.2,1.1,78,0.00,,,0.16,WUHU216HW,2013-12-11 02:30:00,
2013-12-10 21:35:00,59.0,52.2,30.18,NNW,338,0.2,1.1,78,0.00,,,0.16,WUHU216HW,2013-12-11 02:35:00,
2013-12-10 21:40:00,58.7,51.8,30.18,NNW,338,0.2,0.9,78,0.00,,,0.16,WUHU216HW,2013-12-11 02:40:00,
2013-12-10 21:45:00,58.7,51.8,30.18,North,0,0.2,0.9,78,0.00,,,0.16,WUHU216HW,2013-12-11 02:45:00,
2013-12-10 21:50:00,58.3,51.5,30.19,ENE,68,0.0,1.1,78,0.00,,,0.16,WUHU216HW,2013-12-11 02:50:00,
2013-12-10 21:55:00,58.1,51.3,30.19,NNE,23,0.2,1.1,78,0.00,,,0.16,WUHU216HW,2013-12-11 02:55:00,
2013-12-10 22:00:00,58.0,51.1,30.19,NNW,338,0.2,1.3,78,0.00,,,0.16,WUHU216HW,2013-12-11 03:00:00,
2013-12-10 22:05:00,57.8,50.9,30.19,North,0,0.4,1.3,78,0.00,,,0.16,WUHU216HW,2013-12-11 03:05:00,
2013-12-10 22:10:00,57.6,50.8,30.19,North,0,0.4,1.1,78,0.00,,,0.16,WUHU216HW,2013-12-11 03:10:00,
2013-12-10 22:15:00,57.2,50.4,30.19,North,0,0.2,1.3,78,0.00,,,0.16,WUHU216HW,2013-12-11 03:15:00,
2013-12-10 22:20:00,57.2,50.4,30.19,North,0,1.1,1.3,78,0.00,,,0.16,WUHU216HW,2013-12-11 03:20:00,
2013-12-10 22:25:00,56.9,49.3,30.20,NNW,338,0.0,2.5,76,0.00,,,0.16,WUHU216HW,2013-12-11 03:25:00,
2013-12-10 22:30:00,56.9,49.3,30.20,North,0,0.2,2.5,76,0.00,,,0.16,WUHU216HW,2013-12-11 03:30:00,
2013-12-10 22:35:00,56.5,48.6,30.20,NNW,338,0.4,1.8,75,0.00,,,0.16,WUHU216HW,2013-12-11 03:35:00,
2013-12-10 22:40:00,56.3,47.8,30.20,NNE,23,1.3,1.3,73,0.00,,,0.16,WUHU216HW,2013-12-11 03:40:00,
2013-12-10 22:45:00,56.2,47.6,30.20,North,0,0.4,1.3,73,0.00,,,0.16,WUHU216HW,2013-12-11 03:45:00,
2013-12-10 22:50:00,56.0,47.4,30.20,NNE,23,0.4,1.3,73,0.00,,,0.16,WUHU216HW,2013-12-11 03:50:00,
2013-12-10 22:55:00,55.8,47.3,30.20,NNW,338,0.4,1.1,73,0.00,,,0.16,WUHU216HW,2013-12-11 03:55:00,
2013-12-10 23:00:00,55.6,47.1,30.20,North,0,0.2,0.9,73,0.00,,,0.16,WUHU216HW,2013-12-11 04:00:00,
2013-12-10 23:05:00,55.4,46.9,30.20,North,0,0.4,1.3,73,0.00,,,0.16,WUHU216HW,2013-12-11 04:05:00,
2013-12-10 23:10:00,55.1,46.3,30.21,NNE,23,0.2,1.3,72,0.00,,,0.16,WUHU216HW,2013-12-11 04:10:00,
2013-12-10 23:15:00,55.1,46.3,30.20,North,0,0.7,1.3,72,0.00,,,0.16,WUHU216HW,2013-12-11 04:15:00,
2013-12-10 23:20:00,54.9,46.1,30.21,NNW,338,0.4,1.1,72,0.00,,,0.16,WUHU216HW,2013-12-11 04:20:00,
2013-12-10 23:25:00,54.7,46.3,30.21,North,0,0.0,1.1,73,0.00,,,0.16,WUHU216HW,2013-12-11 04:25:00,
2013-12-10 23:30:00,54.7,45.9,30.21,NNW,338,0.0,1.3,72,0.00,,,0.16,WUHU216HW,2013-12-11 04:30:00,
2013-12-10 23:35:00,54.5,46.1,30.21,North,0,0.0,1.3,73,0.00,,,0.16,WUHU216HW,2013-12-11 04:35:00,
2013-12-10 23:40:00,54.4,45.9,30.21,North,0,0.0,0.9,73,0.00,,,0.16,WUHU216HW,2013-12-11 04:40:00,
2013-12-10 23:45:00,54.4,45.9,30.21,North,0,0.2,1.8,73,0.00,,,0.16,WUHU216HW,2013-12-11 04:45:00,
2013-12-10 23:50:00,54.0,45.6,30.21,NNW,338,0.0,2.7,73,0.00,,,0.16,WUHU216HW,2013-12-11 04:50:00,
2013-12-10 23:55:00,54.0,45.6,30.21,NNW,338,0.2,2.7,73,0.00,,,0.16,WUHU216HW,2013-12-11 04:55:00,